All Spectrum Aviation - Van Nuys Airport - KVNY

HOME

Condor Squadron KVNY Webcam

Visit our Electronics Store

Condor Squadron Webcam - Van Nuys Airport - KVNY
Picture taken: Tue, 12 Nov 2019 01:07:23 -0800
YouTube Channel!    Latest Timelapse Movie    Full Size Image    Regular Size Image    

2019/11/12 08:51 KVNY 120851Z AUTO 00000KT 5SM BR CLR 13/11 A3005 RMK AO2 SLP170 T01330111 53001 $

HOME

Condor Squadron KVNY Webcam

Visit our Electronics Store